sensor_id;sensor_type;location;lat;lon;timestamp;pressure;altitude;pressure_sealevel;temperature;humidity
14295;BME280;7231;59.370;18.016;2023-06-10T00:00:54;102606.31;;;10.03;55.34
14295;BME280;7231;59.370;18.016;2023-06-10T00:03:22;102614.81;;;9.99;55.50
14295;BME280;7231;59.370;18.016;2023-06-10T00:05:51;102614.38;;;9.91;55.86
14295;BME280;7231;59.370;18.016;2023-06-10T00:08:19;102616.91;;;9.90;56.05
14295;BME280;7231;59.370;18.016;2023-06-10T00:10:48;102618.44;;;9.86;56.11
14295;BME280;7231;59.370;18.016;2023-06-10T00:13:16;102619.16;;;9.84;56.51
14295;BME280;7231;59.370;18.016;2023-06-10T00:15:45;102617.34;;;9.83;56.63
14295;BME280;7231;59.370;18.016;2023-06-10T00:18:13;102619.69;;;9.78;56.82
14295;BME280;7231;59.370;18.016;2023-06-10T00:20:41;102626.19;;;9.70;56.91
14295;BME280;7231;59.370;18.016;2023-06-10T00:23:09;102620.31;;;9.59;56.86
14295;BME280;7231;59.370;18.016;2023-06-10T00:25:38;102625.66;;;9.61;57.30
14295;BME280;7231;59.370;18.016;2023-06-10T00:28:07;102629.69;;;9.56;57.52
14295;BME280;7231;59.370;18.016;2023-06-10T00:30:35;102630.22;;;9.50;57.82
14295;BME280;7231;59.370;18.016;2023-06-10T00:33:03;102627.94;;;9.41;57.77
14295;BME280;7231;59.370;18.016;2023-06-10T00:35:32;102638.63;;;9.44;58.19
14295;BME280;7231;59.370;18.016;2023-06-10T00:38:00;102639.25;;;9.40;58.12
14295;BME280;7231;59.370;18.016;2023-06-10T00:40:28;102632.81;;;9.35;58.13
14295;BME280;7231;59.370;18.016;2023-06-10T00:42:56;102640.38;;;9.31;58.41
14295;BME280;7231;59.370;18.016;2023-06-10T00:45:25;102638.47;;;9.28;58.79
14295;BME280;7231;59.370;18.016;2023-06-10T00:47:53;102642.72;;;9.26;58.70
14295;BME280;7231;59.370;18.016;2023-06-10T00:50:21;102654.00;;;9.25;58.58
14295;BME280;7231;59.370;18.016;2023-06-10T00:52:50;102642.44;;;9.22;59.09
14295;BME280;7231;59.370;18.016;2023-06-10T00:55:21;102617.63;;;9.02;59.33
14295;BME280;7231;59.370;18.016;2023-06-10T00:57:50;102645.56;;;9.16;59.49
14295;BME280;7231;59.370;18.016;2023-06-10T01:00:19;102650.72;;;9.15;59.47
14295;BME280;7231;59.370;18.016;2023-06-10T01:02:48;102652.34;;;9.13;59.52
14295;BME280;7231;59.370;18.016;2023-06-10T01:05:19;102665.31;;;9.11;59.15
14295;BME280;7231;59.370;18.016;2023-06-10T01:07:51;102663.22;;;9.05;59.62
14295;BME280;7231;59.370;18.016;2023-06-10T01:10:29;102667.06;;;8.97;60.03
14295;BME280;7231;59.370;18.016;2023-06-10T01:13:02;102676.44;;;8.94;59.71
14295;BME280;7231;59.370;18.016;2023-06-10T01:15:31;102606.88;;;8.56;60.05
14295;BME280;7231;59.370;18.016;2023-06-10T01:18:02;102660.34;;;8.88;60.12
14295;BME280;7231;59.370;18.016;2023-06-10T01:20:31;102663.56;;;8.84;59.92
14295;BME280;7231;59.370;18.016;2023-06-10T01:23:01;102645.97;;;8.68;60.27
14295;BME280;7231;59.370;18.016;2023-06-10T01:25:31;102664.59;;;8.72;60.36
14295;BME280;7231;59.370;18.016;2023-06-10T01:28:07;102657.34;;;8.68;60.49
14295;BME280;7231;59.370;18.016;2023-06-10T01:30:45;102669.13;;;8.62;60.89
14295;BME280;7231;59.370;18.016;2023-06-10T01:33:17;102639.16;;;8.43;60.84
14295;BME280;7231;59.370;18.016;2023-06-10T01:35:47;102655.34;;;8.51;60.96
14295;BME280;7231;59.370;18.016;2023-06-10T01:38:19;102659.56;;;8.49;60.99
14295;BME280;7231;59.370;18.016;2023-06-10T01:40:48;102645.38;;;8.32;61.57
14295;BME280;7231;59.370;18.016;2023-06-10T01:43:17;102665.41;;;8.45;61.53
14295;BME280;7231;59.370;18.016;2023-06-10T01:45:45;102676.66;;;8.44;61.20
14295;BME280;7231;59.370;18.016;2023-06-10T01:48:13;102665.38;;;8.32;61.84
14295;BME280;7231;59.370;18.016;2023-06-10T01:50:41;102661.66;;;8.28;62.46
14295;BME280;7231;59.370;18.016;2023-06-10T01:53:11;102684.09;;;8.38;62.44
14295;BME280;7231;59.370;18.016;2023-06-10T01:55:40;102648.19;;;8.22;62.97
14295;BME280;7231;59.370;18.016;2023-06-10T01:58:08;102683.19;;;8.37;62.53
14295;BME280;7231;59.370;18.016;2023-06-10T02:00:38;102689.53;;;8.41;63.09
14295;BME280;7231;59.370;18.016;2023-06-10T02:03:06;102696.69;;;8.43;63.10
14295;BME280;7231;59.370;18.016;2023-06-10T02:05:34;102694.06;;;8.43;63.33
14295;BME280;7231;59.370;18.016;2023-06-10T02:08:02;102683.41;;;8.40;63.32
14295;BME280;7231;59.370;18.016;2023-06-10T02:10:30;102692.34;;;8.44;63.18
14295;BME280;7231;59.370;18.016;2023-06-10T02:13:00;102681.09;;;8.45;63.78
14295;BME280;7231;59.370;18.016;2023-06-10T02:15:28;102690.53;;;8.43;63.56
14295;BME280;7231;59.370;18.016;2023-06-10T02:17:56;102683.50;;;8.42;63.83
14295;BME280;7231;59.370;18.016;2023-06-10T02:20:24;102685.72;;;8.36;63.80
14295;BME280;7231;59.370;18.016;2023-06-10T02:22:52;102689.22;;;8.36;63.86
14295;BME280;7231;59.370;18.016;2023-06-10T02:25:20;102693.44;;;8.34;64.12
14295;BME280;7231;59.370;18.016;2023-06-10T02:27:48;102691.84;;;8.36;64.54
14295;BME280;7231;59.370;18.016;2023-06-10T02:30:18;102678.44;;;8.32;64.38
14295;BME280;7231;59.370;18.016;2023-06-10T02:32:46;102695.47;;;8.38;64.36
14295;BME280;7231;59.370;18.016;2023-06-10T02:35:15;102697.38;;;8.41;64.49
14295;BME280;7231;59.370;18.016;2023-06-10T02:37:43;102693.25;;;8.44;64.75
14295;BME280;7231;59.370;18.016;2023-06-10T02:40:11;102681.59;;;8.39;64.49
14295;BME280;7231;59.370;18.016;2023-06-10T02:42:39;102708.34;;;8.49;64.73
14295;BME280;7231;59.370;18.016;2023-06-10T02:45:08;102641.44;;;8.12;64.80
14295;BME280;7231;59.370;18.016;2023-06-10T02:47:38;102708.94;;;8.44;65.04
14295;BME280;7231;59.370;18.016;2023-06-10T02:50:07;102705.84;;;8.50;65.58
14295;BME280;7231;59.370;18.016;2023-06-10T02:52:35;102701.41;;;8.49;65.23
14295;BME280;7231;59.370;18.016;2023-06-10T02:55:04;102707.44;;;8.48;65.15
14295;BME280;7231;59.370;18.016;2023-06-10T02:57:32;102684.81;;;8.35;65.52
14295;BME280;7231;59.370;18.016;2023-06-10T03:00:00;102701.31;;;8.48;65.44
14295;BME280;7231;59.370;18.016;2023-06-10T03:02:39;102683.09;;;8.36;65.11
14295;BME280;7231;59.370;18.016;2023-06-10T03:05:07;102702.41;;;8.51;65.26
14295;BME280;7231;59.370;18.016;2023-06-10T03:07:37;102705.22;;;8.54;65.63
14295;BME280;7231;59.370;18.016;2023-06-10T03:10:06;102706.44;;;8.59;65.67
14295;BME280;7231;59.370;18.016;2023-06-10T03:12:35;102708.44;;;8.63;65.06
14295;BME280;7231;59.370;18.016;2023-06-10T03:15:04;102717.59;;;8.70;65.41
14295;BME280;7231;59.370;18.016;2023-06-10T03:17:33;102704.53;;;8.70;65.27
14295;BME280;7231;59.370;18.016;2023-06-10T03:20:03;102706.53;;;8.74;65.50
14295;BME280;7231;59.370;18.016;2023-06-10T03:22:32;102726.44;;;8.85;65.29
14295;BME280;7231;59.370;18.016;2023-06-10T03:25:00;102666.31;;;8.59;65.58
14295;BME280;7231;59.370;18.016;2023-06-10T03:27:28;102710.44;;;8.94;65.29
14295;BME280;7231;59.370;18.016;2023-06-10T03:29:56;102721.69;;;9.06;65.65
14295;BME280;7231;59.370;18.016;2023-06-10T03:32:24;102720.47;;;9.14;65.37
14295;BME280;7231;59.370;18.016;2023-06-10T03:34:52;102717.44;;;9.21;65.00
14295;BME280;7231;59.370;18.016;2023-06-10T03:37:25;102721.44;;;9.29;64.95
14295;BME280;7231;59.370;18.016;2023-06-10T03:39:53;102712.78;;;9.30;64.77
14295;BME280;7231;59.370;18.016;2023-06-10T03:42:21;102698.88;;;9.31;64.32
14295;BME280;7231;59.370;18.016;2023-06-10T03:44:49;102726.94;;;9.47;64.26
14295;BME280;7231;59.370;18.016;2023-06-10T03:47:17;102721.88;;;9.50;64.18
14295;BME280;7231;59.370;18.016;2023-06-10T03:49:45;102725.69;;;9.55;63.87
14295;BME280;7231;59.370;18.016;2023-06-10T03:52:13;102721.66;;;9.60;64.08
14295;BME280;7231;59.370;18.016;2023-06-10T03:54:43;102717.22;;;9.59;63.81
14295;BME280;7231;59.370;18.016;2023-06-10T03:57:11;102725.03;;;9.72;63.52
14295;BME280;7231;59.370;18.016;2023-06-10T03:59:39;102714.16;;;9.66;63.40
14295;BME280;7231;59.370;18.016;2023-06-10T04:02:07;102730.91;;;9.83;63.47
14295;BME280;7231;59.370;18.016;2023-06-10T04:04:35;102729.50;;;9.88;63.38
14295;BME280;7231;59.370;18.016;2023-06-10T04:07:04;102733.38;;;9.95;63.39
14295;BME280;7231;59.370;18.016;2023-06-10T04:09:33;102729.41;;;10.01;63.04
14295;BME280;7231;59.370;18.016;2023-06-10T04:12:03;102736.03;;;10.09;62.98
14295;BME280;7231;59.370;18.016;2023-06-10T04:14:33;102739.81;;;10.15;62.74
14295;BME280;7231;59.370;18.016;2023-06-10T04:17:02;102735.66;;;10.18;62.46
14295;BME280;7231;59.370;18.016;2023-06-10T04:19:33;102743.03;;;10.24;62.19
14295;BME280;7231;59.370;18.016;2023-06-10T04:22:01;102736.25;;;10.27;61.91
14295;BME280;7231;59.370;18.016;2023-06-10T04:24:29;102746.28;;;10.34;62.14
14295;BME280;7231;59.370;18.016;2023-06-10T04:26:57;102733.44;;;10.39;61.88
14295;BME280;7231;59.370;18.016;2023-06-10T04:29:27;102733.78;;;10.45;61.83
14295;BME280;7231;59.370;18.016;2023-06-10T04:31:55;102705.97;;;10.32;61.65
14295;BME280;7231;59.370;18.016;2023-06-10T04:34:23;102736.31;;;10.58;61.50
14295;BME280;7231;59.370;18.016;2023-06-10T04:36:52;102647.16;;;10.14;61.02
14295;BME280;7231;59.370;18.016;2023-06-10T04:39:20;102743.34;;;10.74;61.21
14295;BME280;7231;59.370;18.016;2023-06-10T04:41:49;102746.41;;;10.82;60.98
14295;BME280;7231;59.370;18.016;2023-06-10T04:44:17;102739.69;;;10.87;60.79
14295;BME280;7231;59.370;18.016;2023-06-10T04:46:46;102743.66;;;10.95;60.47
14295;BME280;7231;59.370;18.016;2023-06-10T04:49:14;102746.81;;;11.04;60.50
14295;BME280;7231;59.370;18.016;2023-06-10T04:51:42;102744.63;;;11.12;60.17
14295;BME280;7231;59.370;18.016;2023-06-10T04:54:10;102752.09;;;11.20;60.22
14295;BME280;7231;59.370;18.016;2023-06-10T04:56:38;102753.25;;;11.25;60.01
14295;BME280;7231;59.370;18.016;2023-06-10T04:59:06;102752.69;;;11.31;59.63
14295;BME280;7231;59.370;18.016;2023-06-10T05:01:34;102752.97;;;11.35;59.59
14295;BME280;7231;59.370;18.016;2023-06-10T05:04:04;102752.38;;;11.41;59.52
14295;BME280;7231;59.370;18.016;2023-06-10T05:06:32;102759.63;;;11.45;59.32
14295;BME280;7231;59.370;18.016;2023-06-10T05:09:00;102755.44;;;11.49;59.04
14295;BME280;7231;59.370;18.016;2023-06-10T05:11:28;102751.34;;;11.54;58.66
14295;BME280;7231;59.370;18.016;2023-06-10T05:13:56;102749.78;;;11.57;58.56
14295;BME280;7231;59.370;18.016;2023-06-10T05:16:24;102753.72;;;11.65;58.38
14295;BME280;7231;59.370;18.016;2023-06-10T05:18:52;102740.84;;;11.70;58.25
14295;BME280;7231;59.370;18.016;2023-06-10T05:21:21;102721.28;;;11.65;58.35
14295;BME280;7231;59.370;18.016;2023-06-10T05:23:49;102742.59;;;11.86;58.08
14295;BME280;7231;59.370;18.016;2023-06-10T05:26:17;102749.81;;;11.90;57.64
14295;BME280;7231;59.370;18.016;2023-06-10T05:28:45;102751.06;;;11.96;57.67
14295;BME280;7231;59.370;18.016;2023-06-10T05:31:13;102734.94;;;11.90;57.43
14295;BME280;7231;59.370;18.016;2023-06-10T05:33:42;102736.41;;;12.01;57.52
14295;BME280;7231;59.370;18.016;2023-06-10T05:36:10;102745.78;;;12.13;57.43
14295;BME280;7231;59.370;18.016;2023-06-10T05:38:39;102740.66;;;12.16;57.46
14295;BME280;7231;59.370;18.016;2023-06-10T05:41:07;102754.38;;;12.26;56.90
14295;BME280;7231;59.370;18.016;2023-06-10T05:43:35;102689.09;;;12.01;57.01
14295;BME280;7231;59.370;18.016;2023-06-10T05:46:03;102753.44;;;12.42;56.37
14295;BME280;7231;59.370;18.016;2023-06-10T05:48:31;102743.16;;;12.47;56.25
14295;BME280;7231;59.370;18.016;2023-06-10T05:50:59;102747.00;;;12.53;56.10
14295;BME280;7231;59.370;18.016;2023-06-10T05:53:27;102698.38;;;12.29;56.14
14295;BME280;7231;59.370;18.016;2023-06-10T05:55:57;102751.13;;;12.66;55.63
14295;BME280;7231;59.370;18.016;2023-06-10T05:58:25;102735.41;;;12.67;55.50
14295;BME280;7231;59.370;18.016;2023-06-10T06:00:53;102735.66;;;12.72;55.53
14295;BME280;7231;59.370;18.016;2023-06-10T06:03:21;102756.50;;;12.85;54.97
14295;BME280;7231;59.370;18.016;2023-06-10T06:05:49;102764.75;;;12.93;54.79
14295;BME280;7231;59.370;18.016;2023-06-10T06:08:17;102757.19;;;13.00;54.71
14295;BME280;7231;59.370;18.016;2023-06-10T06:10:46;102713.31;;;12.82;54.52
14295;BME280;7231;59.370;18.016;2023-06-10T06:13:15;102743.06;;;13.16;54.31
14295;BME280;7231;59.370;18.016;2023-06-10T06:15:44;102755.94;;;13.28;54.11
14295;BME280;7231;59.370;18.016;2023-06-10T06:18:12;102759.84;;;13.36;53.67
14295;BME280;7231;59.370;18.016;2023-06-10T06:20:40;102744.91;;;13.37;53.71
14295;BME280;7231;59.370;18.016;2023-06-10T06:23:08;102753.41;;;13.49;53.38
14295;BME280;7231;59.370;18.016;2023-06-10T06:25:37;102762.50;;;13.55;53.12
14295;BME280;7231;59.370;18.016;2023-06-10T06:28:06;102761.03;;;13.62;53.09
14295;BME280;7231;59.370;18.016;2023-06-10T06:30:35;102757.88;;;13.69;53.04
14295;BME280;7231;59.370;18.016;2023-06-10T06:33:03;102759.03;;;13.76;52.76
14295;BME280;7231;59.370;18.016;2023-06-10T06:35:32;102750.22;;;13.75;52.57
14295;BME280;7231;59.370;18.016;2023-06-10T06:38:00;102764.25;;;13.93;52.60
14295;BME280;7231;59.370;18.016;2023-06-10T06:40:30;102766.41;;;14.02;52.19
14295;BME280;7231;59.370;18.016;2023-06-10T06:42:58;102765.97;;;14.12;51.90
14295;BME280;7231;59.370;18.016;2023-06-10T06:45:26;102769.09;;;14.23;51.82
14295;BME280;7231;59.370;18.016;2023-06-10T06:47:56;102670.28;;;13.76;51.53
14295;BME280;7231;59.370;18.016;2023-06-10T06:50:24;102768.38;;;14.46;51.17
14295;BME280;7231;59.370;18.016;2023-06-10T06:52:52;102770.81;;;14.63;50.79
14295;BME280;7231;59.370;18.016;2023-06-10T06:55:20;102765.09;;;14.73;50.40
14295;BME280;7231;59.370;18.016;2023-06-10T06:57:48;102770.94;;;14.86;50.45
14295;BME280;7231;59.370;18.016;2023-06-10T07:00:17;102772.16;;;14.94;50.11
14295;BME280;7231;59.370;18.016;2023-06-10T07:02:45;102780.59;;;15.07;49.66
14295;BME280;7231;59.370;18.016;2023-06-10T07:05:14;102773.09;;;15.17;49.42
14295;BME280;7231;59.370;18.016;2023-06-10T07:07:43;102770.94;;;15.30;49.25
14295;BME280;7231;59.370;18.016;2023-06-10T07:10:11;102757.00;;;15.34;49.01
14295;BME280;7231;59.370;18.016;2023-06-10T07:12:39;102779.19;;;15.60;48.63
14295;BME280;7231;59.370;18.016;2023-06-10T07:15:07;102778.00;;;15.75;48.34
14295;BME280;7231;59.370;18.016;2023-06-10T07:17:36;102778.47;;;15.87;47.83
14295;BME280;7231;59.370;18.016;2023-06-10T07:20:04;102757.34;;;15.89;47.77
14295;BME280;7231;59.370;18.016;2023-06-10T07:22:34;102769.84;;;16.17;47.39
14295;BME280;7231;59.370;18.016;2023-06-10T07:25:02;102758.94;;;16.33;46.76
14295;BME280;7231;59.370;18.016;2023-06-10T07:27:30;102776.75;;;16.63;46.30
14295;BME280;7231;59.370;18.016;2023-06-10T07:29:58;102778.44;;;16.86;45.71
14295;BME280;7231;59.370;18.016;2023-06-10T07:32:27;102772.25;;;17.12;45.17
14295;BME280;7231;59.370;18.016;2023-06-10T07:34:55;102764.34;;;17.42;45.02
14295;BME280;7231;59.370;18.016;2023-06-10T07:37:23;102773.56;;;17.83;44.82
14295;BME280;7231;59.370;18.016;2023-06-10T07:39:52;102765.31;;;18.37;44.47
14295;BME280;7231;59.370;18.016;2023-06-10T07:42:20;102766.63;;;19.24;43.95
14295;BME280;7231;59.370;18.016;2023-06-10T07:44:48;102757.09;;;20.16;42.61
14295;BME280;7231;59.370;18.016;2023-06-10T07:47:16;102762.06;;;20.97;41.21
14295;BME280;7231;59.370;18.016;2023-06-10T07:49:44;102770.38;;;21.79;39.82
14295;BME280;7231;59.370;18.016;2023-06-10T07:52:13;102749.72;;;22.42;38.66
14295;BME280;7231;59.370;18.016;2023-06-10T07:54:40;102756.53;;;23.08;37.74
14295;BME280;7231;59.370;18.016;2023-06-10T07:57:10;102738.91;;;23.51;36.12
14295;BME280;7231;59.370;18.016;2023-06-10T07:59:38;102752.47;;;23.89;35.49
14295;BME280;7231;59.370;18.016;2023-06-10T08:02:06;102750.78;;;24.17;34.92
14295;BME280;7231;59.370;18.016;2023-06-10T08:04:34;102754.41;;;24.33;34.03
14295;BME280;7231;59.370;18.016;2023-06-10T08:07:03;102727.59;;;24.31;33.53
14295;BME280;7231;59.370;18.016;2023-06-10T08:09:31;102745.50;;;24.70;33.17
14295;BME280;7231;59.370;18.016;2023-06-10T08:11:59;102750.84;;;24.95;32.63
14295;BME280;7231;59.370;18.016;2023-06-10T08:14:29;102737.44;;;25.11;31.69
14295;BME280;7231;59.370;18.016;2023-06-10T08:16:57;102711.47;;;25.13;31.77
14295;BME280;7231;59.370;18.016;2023-06-10T08:19:25;102754.28;;;25.61;30.70
14295;BME280;7231;59.370;18.016;2023-06-10T08:21:53;102664.84;;;25.36;30.26
14295;BME280;7231;59.370;18.016;2023-06-10T08:24:21;102744.19;;;26.05;29.35
14295;BME280;7231;59.370;18.016;2023-06-10T08:26:49;102748.53;;;26.29;28.51
14295;BME280;7231;59.370;18.016;2023-06-10T08:29:19;102747.50;;;26.53;28.21
14295;BME280;7231;59.370;18.016;2023-06-10T08:31:48;102745.59;;;26.64;27.48
14295;BME280;7231;59.370;18.016;2023-06-10T08:34:16;102747.31;;;26.74;27.08
14295;BME280;7231;59.370;18.016;2023-06-10T08:36:45;102743.59;;;26.89;26.76
14295;BME280;7231;59.370;18.016;2023-06-10T08:39:13;102736.28;;;27.03;27.20
14295;BME280;7231;59.370;18.016;2023-06-10T08:41:43;102735.28;;;27.13;26.91
14295;BME280;7231;59.370;18.016;2023-06-10T08:44:17;102730.72;;;27.20;26.38
14295;BME280;7231;59.370;18.016;2023-06-10T08:46:47;102691.44;;;27.01;26.13
14295;BME280;7231;59.370;18.016;2023-06-10T08:49:19;102728.78;;;27.34;25.80
14295;BME280;7231;59.370;18.016;2023-06-10T08:51:50;102733.16;;;27.43;25.82
14295;BME280;7231;59.370;18.016;2023-06-10T08:54:24;102739.31;;;27.53;25.25
14295;BME280;7231;59.370;18.016;2023-06-10T08:56:54;102735.50;;;27.73;25.53
14295;BME280;7231;59.370;18.016;2023-06-10T08:59:23;102731.69;;;27.90;25.17
14295;BME280;7231;59.370;18.016;2023-06-10T09:01:53;102731.47;;;28.03;24.84
14295;BME280;7231;59.370;18.016;2023-06-10T09:04:24;102688.56;;;27.87;24.47
14295;BME280;7231;59.370;18.016;2023-06-10T09:06:52;102721.53;;;28.07;24.24
14295;BME280;7231;59.370;18.016;2023-06-10T09:09:22;102731.38;;;28.11;24.54
14295;BME280;7231;59.370;18.016;2023-06-10T09:11:50;102728.41;;;28.29;24.01
14295;BME280;7231;59.370;18.016;2023-06-10T09:14:19;102729.25;;;28.33;24.63
14295;BME280;7231;59.370;18.016;2023-06-10T09:16:46;102721.00;;;28.42;24.70
14295;BME280;7231;59.370;18.016;2023-06-10T09:19:16;102728.09;;;28.49;24.17
14295;BME280;7231;59.370;18.016;2023-06-10T09:21:46;102723.66;;;28.45;23.56
14295;BME280;7231;59.370;18.016;2023-06-10T09:24:14;102719.69;;;28.64;24.06
14295;BME280;7231;59.370;18.016;2023-06-10T09:26:43;102717.59;;;28.83;23.37
14295;BME280;7231;59.370;18.016;2023-06-10T09:29:12;102714.56;;;29.01;22.83
14295;BME280;7231;59.370;18.016;2023-06-10T09:31:40;102703.91;;;28.92;22.81
14295;BME280;7231;59.370;18.016;2023-06-10T09:34:10;102718.03;;;29.08;23.26
14295;BME280;7231;59.370;18.016;2023-06-10T09:36:39;102719.53;;;29.23;22.52
14295;BME280;7231;59.370;18.016;2023-06-10T09:39:15;102722.16;;;29.26;22.68
14295;BME280;7231;59.370;18.016;2023-06-10T09:41:44;102710.16;;;29.42;22.66
14295;BME280;7231;59.370;18.016;2023-06-10T09:44:13;102710.09;;;29.45;22.79
14295;BME280;7231;59.370;18.016;2023-06-10T09:46:42;102714.41;;;29.54;23.19
14295;BME280;7231;59.370;18.016;2023-06-10T09:49:12;102707.78;;;29.68;22.69
14295;BME280;7231;59.370;18.016;2023-06-10T09:51:49;102711.81;;;29.89;21.87
14295;BME280;7231;59.370;18.016;2023-06-10T09:54:20;102700.84;;;29.95;21.60
14295;BME280;7231;59.370;18.016;2023-06-10T09:56:49;102710.69;;;29.99;21.98
14295;BME280;7231;59.370;18.016;2023-06-10T09:59:28;102689.78;;;30.08;22.07
14295;BME280;7231;59.370;18.016;2023-06-10T10:01:56;102712.50;;;29.99;21.96
14295;BME280;7231;59.370;18.016;2023-06-10T10:04:24;102707.59;;;29.78;21.72
14295;BME280;7231;59.370;18.016;2023-06-10T10:06:53;102704.13;;;29.71;22.22
14295;BME280;7231;59.370;18.016;2023-06-10T10:09:22;102700.44;;;29.75;21.73
14295;BME280;7231;59.370;18.016;2023-06-10T10:11:51;102686.44;;;29.56;22.46
14295;BME280;7231;59.370;18.016;2023-06-10T10:14:22;102697.44;;;29.87;22.95
14295;BME280;7231;59.370;18.016;2023-06-10T10:16:52;102699.84;;;29.99;22.39
14295;BME280;7231;59.370;18.016;2023-06-10T10:19:27;102651.75;;;29.75;22.26
14295;BME280;7231;59.370;18.016;2023-06-10T10:22:01;102694.78;;;30.24;21.50
14295;BME280;7231;59.370;18.016;2023-06-10T10:24:34;102684.97;;;30.20;21.16
14295;BME280;7231;59.370;18.016;2023-06-10T10:27:10;102693.19;;;30.16;21.59
14295;BME280;7231;59.370;18.016;2023-06-10T10:29:39;102681.31;;;30.21;21.71
14295;BME280;7231;59.370;18.016;2023-06-10T10:32:08;102688.41;;;30.27;21.20
14295;BME280;7231;59.370;18.016;2023-06-10T10:34:49;102686.69;;;30.23;21.46
14295;BME280;7231;59.370;18.016;2023-06-10T10:37:21;102687.47;;;30.28;21.74
14295;BME280;7231;59.370;18.016;2023-06-10T10:39:50;102683.13;;;30.21;21.56
14295;BME280;7231;59.370;18.016;2023-06-10T10:42:18;102681.63;;;30.09;21.87
14295;BME280;7231;59.370;18.016;2023-06-10T10:44:49;102685.19;;;30.11;21.98
14295;BME280;7231;59.370;18.016;2023-06-10T10:47:20;102678.22;;;29.99;21.79
14295;BME280;7231;59.370;18.016;2023-06-10T10:49:51;102694.94;;;29.78;21.82
14295;BME280;7231;59.370;18.016;2023-06-10T10:52:20;102681.50;;;29.75;22.15
14295;BME280;7231;59.370;18.016;2023-06-10T10:54:49;102687.75;;;29.77;22.98
14295;BME280;7231;59.370;18.016;2023-06-10T10:57:21;102687.53;;;29.86;22.97
14295;BME280;7231;59.370;18.016;2023-06-10T10:59:55;102673.22;;;29.43;23.22
14295;BME280;7231;59.370;18.016;2023-06-10T11:02:40;102656.25;;;28.90;23.61
14295;BME280;7231;59.370;18.016;2023-06-10T11:05:11;102683.19;;;28.93;24.26
14295;BME280;7231;59.370;18.016;2023-06-10T11:07:40;102682.22;;;28.97;24.67
14295;BME280;7231;59.370;18.016;2023-06-10T11:10:11;102692.09;;;28.98;25.08
14295;BME280;7231;59.370;18.016;2023-06-10T11:12:50;102663.91;;;28.65;24.48
14295;BME280;7231;59.370;18.016;2023-06-10T11:15:21;102680.06;;;28.66;24.35
14295;BME280;7231;59.370;18.016;2023-06-10T11:18:13;102691.06;;;28.57;25.24
14295;BME280;7231;59.370;18.016;2023-06-10T11:20:51;102681.91;;;28.64;24.62
14295;BME280;7231;59.370;18.016;2023-06-10T11:23:34;102690.16;;;28.58;25.81
14295;BME280;7231;59.370;18.016;2023-06-10T11:26:30;102665.94;;;28.54;25.79
14295;BME280;7231;59.370;18.016;2023-06-10T11:29:06;102654.53;;;28.36;24.70
14295;BME280;7231;59.370;18.016;2023-06-10T11:31:44;102695.69;;;28.49;26.16
14295;BME280;7231;59.370;18.016;2023-06-10T11:34:15;102687.47;;;28.00;26.03
14295;BME280;7231;59.370;18.016;2023-06-10T11:36:49;102682.66;;;27.57;26.04
14295;BME280;7231;59.370;18.016;2023-06-10T11:39:20;102679.94;;;27.59;27.75
14295;BME280;7231;59.370;18.016;2023-06-10T11:41:51;102676.88;;;27.88;26.28
14295;BME280;7231;59.370;18.016;2023-06-10T11:44:20;102689.53;;;27.83;26.05
14295;BME280;7231;59.370;18.016;2023-06-10T11:46:48;102678.00;;;27.73;26.00
14295;BME280;7231;59.370;18.016;2023-06-10T11:49:20;102678.84;;;27.76;26.33
14295;BME280;7231;59.370;18.016;2023-06-10T11:51:48;102666.41;;;27.66;27.02
14295;BME280;7231;59.370;18.016;2023-06-10T11:54:19;102672.63;;;27.71;26.81
14295;BME280;7231;59.370;18.016;2023-06-10T11:56:47;102677.47;;;27.43;26.58
14295;BME280;7231;59.370;18.016;2023-06-10T11:59:17;102626.97;;;26.84;26.14
14295;BME280;7231;59.370;18.016;2023-06-10T12:01:45;102671.75;;;26.91;26.66
14295;BME280;7231;59.370;18.016;2023-06-10T12:04:14;102682.75;;;26.71;26.82
14295;BME280;7231;59.370;18.016;2023-06-10T12:06:46;102683.06;;;26.30;27.12
14295;BME280;7231;59.370;18.016;2023-06-10T12:09:17;102679.69;;;26.05;27.43
14295;BME280;7231;59.370;18.016;2023-06-10T12:11:55;102671.63;;;26.02;26.85
14295;BME280;7231;59.370;18.016;2023-06-10T12:14:54;102675.09;;;26.19;26.25
14295;BME280;7231;59.370;18.016;2023-06-10T12:17:34;102652.75;;;26.11;26.61
14295;BME280;7231;59.370;18.016;2023-06-10T12:20:05;102672.34;;;26.32;26.65
14295;BME280;7231;59.370;18.016;2023-06-10T12:22:38;102682.28;;;26.16;26.05
14295;BME280;7231;59.370;18.016;2023-06-10T12:25:07;102680.78;;;25.78;26.56
14295;BME280;7231;59.370;18.016;2023-06-10T12:27:36;102674.25;;;26.10;26.10
14295;BME280;7231;59.370;18.016;2023-06-10T12:30:07;102654.91;;;26.74;25.49
14295;BME280;7231;59.370;18.016;2023-06-10T12:32:36;102662.00;;;27.58;25.02
14295;BME280;7231;59.370;18.016;2023-06-10T12:35:05;102663.72;;;28.26;24.78
14295;BME280;7231;59.370;18.016;2023-06-10T12:37:34;102649.06;;;28.89;24.36
14295;BME280;7231;59.370;18.016;2023-06-10T12:40:07;102628.25;;;29.37;23.58
14295;BME280;7231;59.370;18.016;2023-06-10T12:42:36;102658.97;;;30.13;23.52
14295;BME280;7231;59.370;18.016;2023-06-10T12:45:07;102665.97;;;30.22;22.85
14295;BME280;7231;59.370;18.016;2023-06-10T12:47:37;102670.34;;;30.27;23.29
14295;BME280;7231;59.370;18.016;2023-06-10T12:50:07;102658.00;;;30.51;22.62
14295;BME280;7231;59.370;18.016;2023-06-10T12:52:35;102655.53;;;30.76;22.51
14295;BME280;7231;59.370;18.016;2023-06-10T12:55:04;102655.41;;;30.81;22.68
14295;BME280;7231;59.370;18.016;2023-06-10T12:57:33;102663.00;;;30.68;21.89
14295;BME280;7231;59.370;18.016;2023-06-10T13:00:01;102647.38;;;30.44;22.49
14295;BME280;7231;59.370;18.016;2023-06-10T13:02:32;102622.41;;;30.32;21.77
14295;BME280;7231;59.370;18.016;2023-06-10T13:05:01;102654.50;;;30.12;21.78